createdAt,value
2022-10-22T00:01:00.242Z,97.09
2022-10-22T00:03:26.691Z,97.21
2022-10-22T00:05:53.031Z,97.03
2022-10-22T00:08:19.618Z,97.00
2022-10-22T00:10:46.048Z,97.01
2022-10-22T00:13:13.303Z,96.94
2022-10-22T00:15:39.720Z,96.80
2022-10-22T00:18:06.239Z,96.84
2022-10-22T00:20:32.588Z,96.77
2022-10-22T00:22:59.326Z,96.80
2022-10-22T00:25:25.788Z,96.77
2022-10-22T00:27:52.430Z,97.13
2022-10-22T00:30:19.006Z,97.01
2022-10-22T00:32:45.605Z,96.97
2022-10-22T00:35:11.973Z,96.97
2022-10-22T00:37:38.404Z,96.88
2022-10-22T00:40:05.955Z,97.22
2022-10-22T00:42:32.365Z,96.92
2022-10-22T00:45:08.348Z,97.87
2022-10-22T00:47:58.327Z,97.62
2022-10-22T00:50:31.700Z,97.28
2022-10-22T00:52:58.949Z,96.67
2022-10-22T00:55:27.028Z,96.76
2022-10-22T00:57:55.634Z,96.72
2022-10-22T01:00:22.409Z,96.57
2022-10-22T01:02:50.701Z,96.65
2022-10-22T01:05:18.136Z,96.62
2022-10-22T01:07:51.404Z,96.85
2022-10-22T01:10:44.275Z,98.16
2022-10-22T01:13:23.254Z,96.70
2022-10-22T01:16:11.070Z,97.89
2022-10-22T01:18:59.020Z,96.52
2022-10-22T01:21:36.734Z,97.36
2022-10-22T01:24:25.882Z,95.90
2022-10-22T01:27:12.492Z,97.83
2022-10-22T01:29:52.679Z,97.34
2022-10-22T01:32:21.298Z,96.54
2022-10-22T01:34:53.946Z,95.77
2022-10-22T01:37:23.632Z,95.80
2022-10-22T01:39:51.728Z,95.16
2022-10-22T01:42:18.111Z,95.34
2022-10-22T01:44:44.600Z,95.07
2022-10-22T01:47:22.077Z,94.94
2022-10-22T01:50:10.474Z,96.76
2022-10-22T01:53:15.229Z,96.64
2022-10-22T01:55:55.352Z,96.06
2022-10-22T01:58:36.700Z,95.29
2022-10-22T02:01:12.804Z,95.91
2022-10-22T02:03:48.108Z,95.27
2022-10-22T02:06:19.270Z,95.73
2022-10-22T02:08:48.545Z,95.08
2022-10-22T02:11:15.845Z,94.78
2022-10-22T02:13:53.262Z,95.81
2022-10-22T02:16:28.355Z,95.90
2022-10-22T02:18:58.674Z,96.32
2022-10-22T02:21:26.464Z,95.46
2022-10-22T02:23:52.979Z,95.78
2022-10-22T02:26:32.060Z,96.02
2022-10-22T02:29:00.924Z,95.68
2022-10-22T02:31:34.127Z,95.60
2022-10-22T02:34:08.051Z,95.65
2022-10-22T02:36:35.575Z,95.71
2022-10-22T02:39:02.925Z,95.48
2022-10-22T02:41:29.799Z,95.02
2022-10-22T02:43:56.325Z,95.13
2022-10-22T02:46:24.327Z,95.05
2022-10-22T02:48:50.696Z,94.46
2022-10-22T02:51:17.082Z,94.49
2022-10-22T02:53:43.416Z,94.87
2022-10-22T02:56:09.954Z,94.54
2022-10-22T02:58:36.328Z,93.99
2022-10-22T03:01:02.790Z,94.95
2022-10-22T03:03:29.220Z,95.22
2022-10-22T03:05:55.610Z,95.56
2022-10-22T03:08:21.956Z,95.89
2022-10-22T03:10:48.312Z,96.83
2022-10-22T03:13:14.702Z,97.30
2022-10-22T03:15:41.140Z,96.74
2022-10-22T03:18:07.716Z,96.80
2022-10-22T03:20:34.143Z,96.75
2022-10-22T03:23:02.126Z,97.29
2022-10-22T03:25:31.014Z,97.71
2022-10-22T03:28:05.241Z,99.41
2022-10-22T03:30:32.275Z,99.87
2022-10-22T03:32:58.821Z,100.00
2022-10-22T03:35:25.461Z,100.00
2022-10-22T03:37:52.110Z,100.00
2022-10-22T03:40:19.085Z,100.00
2022-10-22T03:42:45.501Z,100.00
2022-10-22T03:45:12.117Z,100.00
2022-10-22T03:47:38.918Z,100.00
2022-10-22T03:50:08.787Z,100.00
2022-10-22T03:52:37.985Z,100.00
2022-10-22T03:55:05.371Z,100.00
2022-10-22T03:57:31.852Z,100.00
2022-10-22T03:59:58.270Z,100.00
2022-10-22T04:02:24.681Z,100.00
2022-10-22T04:04:51.082Z,100.00
2022-10-22T04:07:17.578Z,100.00
2022-10-22T04:09:43.942Z,100.00
2022-10-22T04:12:10.375Z,100.00
2022-10-22T04:14:36.802Z,100.00
2022-10-22T04:17:03.330Z,100.00
2022-10-22T04:19:29.714Z,100.00
2022-10-22T04:21:58.867Z,100.00
2022-10-22T04:24:26.028Z,100.00
2022-10-22T04:26:55.919Z,100.00
2022-10-22T04:29:26.004Z,100.00
2022-10-22T04:31:55.230Z,100.00
2022-10-22T04:34:21.877Z,100.00
2022-10-22T04:36:48.267Z,100.00
2022-10-22T04:39:15.138Z,100.00
2022-10-22T04:41:41.554Z,99.79
2022-10-22T04:44:11.119Z,99.23
2022-10-22T04:46:42.462Z,99.25
2022-10-22T04:49:09.181Z,98.83
2022-10-22T04:51:35.626Z,98.82
2022-10-22T04:54:02.549Z,98.74
2022-10-22T04:56:30.919Z,98.82
2022-10-22T04:58:59.815Z,98.71
2022-10-22T05:01:31.947Z,99.17
2022-10-22T05:04:00.469Z,98.46
2022-10-22T05:06:28.793Z,98.33
2022-10-22T05:08:57.829Z,98.24
2022-10-22T05:11:30.106Z,98.40
2022-10-22T05:13:58.119Z,98.18
2022-10-22T05:16:25.685Z,98.01
2022-10-22T05:18:52.213Z,98.02
2022-10-22T05:21:20.235Z,97.94
2022-10-22T05:23:48.865Z,97.85
2022-10-22T05:26:19.070Z,97.88
2022-10-22T05:28:46.302Z,98.98
2022-10-22T05:31:13.888Z,97.20
2022-10-22T05:33:41.270Z,97.61
2022-10-22T05:36:10.922Z,97.69
2022-10-22T05:38:37.609Z,97.36
2022-10-22T05:41:09.973Z,97.68
2022-10-22T05:43:37.767Z,97.62
2022-10-22T05:46:09.000Z,97.64
2022-10-22T05:48:36.188Z,97.69
2022-10-22T05:51:05.466Z,98.05
2022-10-22T05:53:36.297Z,98.42
2022-10-22T05:56:04.567Z,98.40
2022-10-22T05:58:31.747Z,98.36
2022-10-22T06:01:17.563Z,99.92
2022-10-22T06:03:44.520Z,98.25
2022-10-22T06:06:24.410Z,99.32
2022-10-22T06:08:52.875Z,98.24
2022-10-22T06:11:21.954Z,98.52
2022-10-22T06:13:49.651Z,98.52
2022-10-22T06:16:16.435Z,98.50
2022-10-22T06:18:42.883Z,98.69
2022-10-22T06:21:15.115Z,99.24
2022-10-22T06:23:43.686Z,98.86
2022-10-22T06:26:11.039Z,98.71
2022-10-22T06:28:40.379Z,98.78
2022-10-22T06:31:06.900Z,98.78
2022-10-22T06:33:34.371Z,98.73
2022-10-22T06:36:11.429Z,99.62
2022-10-22T06:38:38.282Z,98.87
2022-10-22T06:41:12.433Z,99.42
2022-10-22T06:43:39.477Z,99.00
2022-10-22T06:46:09.623Z,99.25
2022-10-22T06:48:37.912Z,99.30
2022-10-22T06:51:07.349Z,99.40
2022-10-22T06:53:34.149Z,99.28
2022-10-22T06:56:06.389Z,99.81
2022-10-22T06:58:32.782Z,99.02
2022-10-22T07:01:11.174Z,100.00
2022-10-22T07:03:39.413Z,99.40
2022-10-22T07:06:08.834Z,99.85
2022-10-22T07:08:36.079Z,99.58
2022-10-22T07:11:11.589Z,100.00
2022-10-22T07:13:38.605Z,99.44
2022-10-22T07:16:06.370Z,99.64
2022-10-22T07:18:33.350Z,99.64
2022-10-22T07:21:00.105Z,99.84
2022-10-22T07:23:27.302Z,99.94
2022-10-22T07:25:53.794Z,99.84
2022-10-22T07:28:20.401Z,99.72
2022-10-22T07:30:47.590Z,100.00
2022-10-22T07:33:14.789Z,99.96
2022-10-22T07:35:41.790Z,99.75
2022-10-22T07:38:09.323Z,99.77
2022-10-22T07:40:36.283Z,99.92
2022-10-22T07:43:03.343Z,100.00
2022-10-22T07:45:29.974Z,99.96
2022-10-22T07:47:56.714Z,99.83
2022-10-22T07:50:23.196Z,99.80
2022-10-22T07:52:49.699Z,99.71
2022-10-22T07:55:16.207Z,99.59
2022-10-22T07:57:42.819Z,99.50
2022-10-22T08:00:10.026Z,99.31
2022-10-22T08:02:36.448Z,99.60
2022-10-22T08:05:02.877Z,99.81
2022-10-22T08:07:29.531Z,99.52
2022-10-22T08:09:56.082Z,99.66
2022-10-22T08:12:22.535Z,99.79
2022-10-22T08:14:49.272Z,99.79
2022-10-22T08:17:16.083Z,100.00
2022-10-22T08:19:42.461Z,100.00
2022-10-22T08:22:09.035Z,100.00
2022-10-22T08:24:35.556Z,100.00
2022-10-22T08:27:01.918Z,100.00
2022-10-22T08:29:28.476Z,100.00
2022-10-22T08:31:57.930Z,100.00
2022-10-22T08:34:24.497Z,100.00
2022-10-22T08:36:50.919Z,100.00
2022-10-22T08:39:17.368Z,100.00
2022-10-22T08:42:04.131Z,100.00
2022-10-22T08:45:14.977Z,100.00
2022-10-22T08:47:53.155Z,100.00
2022-10-22T08:50:26.930Z,100.00
2022-10-22T08:53:00.148Z,100.00
2022-10-22T08:55:26.634Z,99.94
2022-10-22T08:58:20.263Z,100.00
2022-10-22T09:00:51.482Z,95.60
2022-10-22T09:03:27.965Z,95.58
2022-10-22T09:06:08.479Z,94.62
2022-10-22T09:08:36.227Z,92.70
2022-10-22T09:11:13.971Z,92.34
2022-10-22T09:13:42.480Z,91.77
2022-10-22T09:16:18.109Z,93.04
2022-10-22T09:18:44.399Z,90.72
2022-10-22T09:21:34.418Z,92.37
2022-10-22T09:24:04.635Z,90.90
2022-10-22T09:26:36.729Z,82.93
2022-10-22T09:29:04.381Z,82.40
2022-10-22T09:31:32.997Z,82.12
2022-10-22T09:34:05.870Z,80.58
2022-10-22T09:36:32.479Z,78.14
2022-10-22T09:38:59.448Z,75.91
2022-10-22T09:41:32.203Z,75.38
2022-10-22T09:43:59.393Z,74.37
2022-10-22T09:46:29.784Z,72.07
2022-10-22T09:49:10.486Z,70.90
2022-10-22T09:51:56.914Z,70.48
2022-10-22T09:54:26.261Z,69.60
2022-10-22T09:57:05.489Z,69.26
2022-10-22T09:59:37.219Z,68.02
2022-10-22T10:02:26.614Z,64.51
2022-10-22T10:05:03.541Z,65.51
2022-10-22T10:07:35.222Z,64.65
2022-10-22T10:10:02.190Z,64.32
2022-10-22T10:12:48.632Z,64.53
2022-10-22T10:15:49.616Z,63.70
2022-10-22T10:18:32.871Z,64.61
2022-10-22T10:23:52.932Z,64.63
2022-10-22T10:26:47.611Z,63.90
2022-10-22T10:29:19.748Z,61.63
2022-10-22T10:32:13.445Z,62.52
2022-10-22T10:34:46.582Z,61.25
2022-10-22T10:37:24.923Z,59.98
2022-10-22T10:40:03.228Z,59.27
2022-10-22T10:42:57.302Z,60.45
2022-10-22T10:45:37.764Z,58.99
2022-10-22T10:48:28.838Z,57.57
2022-10-22T10:51:35.686Z,57.72
2022-10-22T10:54:35.340Z,55.76
2022-10-22T10:57:09.661Z,55.52
2022-10-22T11:00:13.964Z,53.61
2022-10-22T11:05:33.349Z,51.48
2022-10-22T11:08:04.514Z,52.74
2022-10-22T11:11:08.821Z,52.75
2022-10-22T11:13:48.369Z,53.80
2022-10-22T11:16:23.894Z,53.32
2022-10-22T11:19:50.263Z,53.88
2022-10-22T11:22:44.462Z,53.45
2022-10-22T11:25:29.133Z,53.01
2022-10-22T11:28:11.122Z,53.15
2022-10-22T11:30:40.856Z,52.97
2022-10-22T11:33:12.945Z,53.82
2022-10-22T11:35:42.618Z,54.57
2022-10-22T11:38:14.337Z,54.36
2022-10-22T11:41:02.358Z,54.67
2022-10-22T11:43:32.545Z,55.46
2022-10-22T11:46:15.869Z,56.58
2022-10-22T11:48:42.618Z,56.19
2022-10-22T11:51:34.239Z,58.04
2022-10-22T11:54:03.601Z,57.02
2022-10-22T11:56:38.573Z,57.25
2022-10-22T11:59:28.590Z,57.54
2022-10-22T12:01:55.577Z,56.13
2022-10-22T12:04:23.548Z,55.36
2022-10-22T12:07:03.276Z,55.77
2022-10-22T12:09:32.857Z,54.38
2022-10-22T12:12:15.384Z,55.23
2022-10-22T12:14:57.307Z,54.14
2022-10-22T12:17:25.598Z,53.35
2022-10-22T12:20:02.765Z,54.52
2022-10-22T12:22:32.499Z,53.47
2022-10-22T12:25:06.039Z,54.23
2022-10-22T12:27:40.823Z,54.23
2022-10-22T12:30:24.589Z,54.65
2022-10-22T12:33:00.529Z,55.78
2022-10-22T12:35:29.672Z,56.61
2022-10-22T12:38:00.338Z,56.35
2022-10-22T12:40:28.248Z,57.00
2022-10-22T12:43:14.280Z,57.22
2022-10-22T12:45:43.473Z,57.27
2022-10-22T12:48:19.762Z,58.06
2022-10-22T12:50:51.110Z,58.15
2022-10-22T12:53:23.003Z,58.91
2022-10-22T12:55:51.852Z,59.06
2022-10-22T12:58:21.342Z,59.62
2022-10-22T13:00:48.474Z,59.75
2022-10-22T13:03:30.280Z,60.19
2022-10-22T13:05:56.848Z,59.59
2022-10-22T13:08:28.295Z,60.50
2022-10-22T13:10:55.920Z,61.01
2022-10-22T13:13:40.811Z,61.39
2022-10-22T13:16:24.700Z,60.92
2022-10-22T13:18:52.613Z,61.11
2022-10-22T13:21:33.549Z,61.70
2022-10-22T13:24:02.647Z,60.97
2022-10-22T13:26:34.788Z,61.15
2022-10-22T13:29:02.982Z,60.93
2022-10-22T13:31:33.566Z,60.52
2022-10-22T13:34:09.803Z,60.50
2022-10-22T13:36:38.526Z,59.28
2022-10-22T13:39:07.917Z,58.82
2022-10-22T13:44:06.397Z,58.17
2022-10-22T13:46:32.897Z,57.97
2022-10-22T13:49:00.321Z,58.15
2022-10-22T13:51:34.974Z,58.61
2022-10-22T13:54:03.407Z,58.51
2022-10-22T13:56:30.061Z,59.28
2022-10-22T13:58:56.475Z,59.47
2022-10-22T14:01:25.836Z,60.60
2022-10-22T14:03:54.997Z,60.95
2022-10-22T14:06:22.559Z,61.18
2022-10-22T14:08:55.055Z,61.90
2022-10-22T14:11:21.605Z,62.05
2022-10-22T14:13:47.970Z,62.33
2022-10-22T14:16:20.397Z,63.08
2022-10-22T14:18:48.434Z,63.27
2022-10-22T14:21:16.918Z,64.17
2022-10-22T14:23:46.357Z,63.86
2022-10-22T14:26:23.037Z,65.01
2022-10-22T14:29:08.717Z,63.90
2022-10-22T14:31:38.038Z,62.96
2022-10-22T14:34:04.463Z,61.95
2022-10-22T14:36:31.008Z,62.07
2022-10-22T14:38:57.411Z,61.78
2022-10-22T14:41:28.247Z,60.51
2022-10-22T14:43:59.486Z,59.88
2022-10-22T14:46:25.846Z,59.29
2022-10-22T14:48:52.238Z,59.93
2022-10-22T14:51:20.887Z,60.01
2022-10-22T14:53:47.814Z,60.31
2022-10-22T14:56:17.350Z,60.30
2022-10-22T14:58:43.781Z,60.80
2022-10-22T15:01:10.609Z,61.33
2022-10-22T15:03:37.536Z,61.39
2022-10-22T15:06:05.263Z,61.73
2022-10-22T15:08:31.984Z,62.70
2022-10-22T15:11:06.516Z,62.19
2022-10-22T15:13:33.614Z,62.64
2022-10-22T15:16:00.154Z,62.48
2022-10-22T15:18:27.517Z,62.80
2022-10-22T15:21:02.234Z,63.41
2022-10-22T15:23:29.154Z,63.64
2022-10-22T15:25:56.453Z,64.14
2022-10-22T15:28:24.661Z,64.57
2022-10-22T15:30:58.829Z,65.15
2022-10-22T15:33:26.583Z,65.47
2022-10-22T15:35:53.072Z,65.98
2022-10-22T15:38:20.104Z,65.90
2022-10-22T15:40:46.676Z,66.38
2022-10-22T15:43:13.177Z,66.19
2022-10-22T15:45:39.630Z,66.58
2022-10-22T15:48:06.586Z,67.03
2022-10-22T15:50:37.761Z,67.50
2022-10-22T15:53:04.377Z,67.68
2022-10-22T15:55:31.655Z,67.84
2022-10-22T15:58:00.589Z,68.41
2022-10-22T16:00:29.983Z,68.07
2022-10-22T16:02:56.378Z,68.71
2022-10-22T16:05:22.797Z,68.67
2022-10-22T16:07:49.779Z,68.95
2022-10-22T16:10:16.175Z,69.60
2022-10-22T16:12:43.406Z,69.99
2022-10-22T16:15:10.737Z,70.46
2022-10-22T16:17:37.204Z,70.71
2022-10-22T16:20:03.933Z,71.42
2022-10-22T16:22:30.460Z,71.68
2022-10-22T16:24:56.823Z,72.03
2022-10-22T16:27:23.259Z,72.34
2022-10-22T16:29:49.684Z,72.50
2022-10-22T16:32:17.826Z,72.97
2022-10-22T16:34:44.246Z,73.07
2022-10-22T16:37:10.914Z,73.13
2022-10-22T16:39:37.942Z,73.65
2022-10-22T16:42:05.271Z,73.79
2022-10-22T16:44:33.935Z,74.10
2022-10-22T16:47:00.991Z,74.25
2022-10-22T16:49:27.387Z,74.22
2022-10-22T16:51:53.906Z,74.58
2022-10-22T16:54:21.716Z,74.65
2022-10-22T16:56:48.082Z,75.26
2022-10-22T16:59:14.678Z,75.33
2022-10-22T17:01:41.614Z,75.18
2022-10-22T17:04:08.892Z,76.20
2022-10-22T17:06:35.540Z,76.35
2022-10-22T17:09:02.864Z,77.51
2022-10-22T17:11:36.281Z,78.14
2022-10-22T17:14:04.619Z,79.27
2022-10-22T17:16:42.327Z,80.23
2022-10-22T17:19:19.209Z,81.44
2022-10-22T17:21:45.752Z,81.89
2022-10-22T17:24:17.215Z,82.75
2022-10-22T17:26:47.237Z,83.53
2022-10-22T17:29:24.711Z,83.89
2022-10-22T17:31:52.557Z,84.83
2022-10-22T17:34:18.951Z,84.86
2022-10-22T17:36:45.373Z,85.11
2022-10-22T17:39:16.439Z,85.29
2022-10-22T17:41:42.820Z,85.19
2022-10-22T17:44:12.152Z,85.68
2022-10-22T17:46:39.194Z,85.79
2022-10-22T17:49:13.254Z,86.43
2022-10-22T17:51:40.619Z,86.39
2022-10-22T17:54:09.813Z,87.00
2022-10-22T17:56:37.636Z,87.30
2022-10-22T17:59:04.412Z,87.53
2022-10-22T18:01:34.048Z,88.54
2022-10-22T18:04:06.823Z,88.99
2022-10-22T18:06:33.886Z,89.36
2022-10-22T18:09:03.982Z,89.67
2022-10-22T18:11:32.429Z,89.21
2022-10-22T18:13:59.132Z,89.61
2022-10-22T18:16:26.523Z,89.39
2022-10-22T18:18:54.964Z,89.61
2022-10-22T18:21:24.106Z,90.31
2022-10-22T18:23:50.516Z,90.20
2022-10-22T18:26:19.326Z,90.93
2022-10-22T18:28:50.714Z,90.79
2022-10-22T18:31:23.322Z,91.05
2022-10-22T18:33:50.280Z,90.82
2022-10-22T18:36:19.708Z,91.25
2022-10-22T18:38:54.449Z,91.94
2022-10-22T18:41:21.106Z,91.22
2022-10-22T18:43:55.779Z,92.24
2022-10-22T18:46:23.866Z,91.61
2022-10-22T18:48:52.847Z,92.12
2022-10-22T18:51:19.831Z,92.35
2022-10-22T18:53:59.207Z,93.19
2022-10-22T18:56:38.156Z,93.20
2022-10-22T18:59:04.505Z,93.36
2022-10-22T19:01:31.011Z,93.44
2022-10-22T19:03:57.617Z,93.65
2022-10-22T19:06:36.753Z,94.07
2022-10-22T19:09:04.485Z,93.87
2022-10-22T19:11:31.655Z,93.97
2022-10-22T19:13:58.360Z,94.19
2022-10-22T19:16:24.731Z,93.86
2022-10-22T19:18:52.106Z,93.91
2022-10-22T19:21:18.672Z,93.56
2022-10-22T19:26:18.748Z,93.29
2022-10-22T19:28:45.341Z,93.12
2022-10-22T19:31:20.774Z,93.57
2022-10-22T19:33:47.884Z,92.81
2022-10-22T19:36:16.969Z,92.96
2022-10-22T19:38:45.436Z,93.21
2022-10-22T19:41:14.648Z,93.67
2022-10-22T19:43:42.715Z,94.04
2022-10-22T19:46:09.983Z,94.36
2022-10-22T19:48:37.405Z,94.57
2022-10-22T19:51:08.411Z,94.19
2022-10-22T19:53:36.616Z,94.42
2022-10-22T19:56:05.764Z,94.47
2022-10-22T19:58:32.191Z,94.39
2022-10-22T20:01:07.305Z,94.25
2022-10-22T20:03:36.171Z,93.80
2022-10-22T20:06:05.837Z,93.88
2022-10-22T20:08:35.751Z,93.43
2022-10-22T20:11:02.696Z,93.29
2022-10-22T20:13:29.277Z,93.49
2022-10-22T20:15:59.046Z,93.48
2022-10-22T20:18:28.637Z,93.08
2022-10-22T20:20:55.055Z,93.23
2022-10-22T20:23:21.544Z,93.35
2022-10-22T20:25:48.163Z,94.19
2022-10-22T20:28:15.316Z,94.09
2022-10-22T20:30:45.516Z,95.13
2022-10-22T20:33:12.199Z,94.45
2022-10-22T20:35:39.156Z,94.02
2022-10-22T20:38:07.531Z,94.45
2022-10-22T20:40:34.083Z,94.28
2022-10-22T20:43:01.615Z,94.42
2022-10-22T20:45:28.085Z,94.14
2022-10-22T20:48:01.922Z,93.83
2022-10-22T20:50:31.291Z,93.77
2022-10-22T20:52:57.918Z,93.89
2022-10-22T20:55:24.604Z,93.63
2022-10-22T20:57:51.028Z,93.70
2022-10-22T21:00:17.553Z,93.63
2022-10-22T21:02:44.175Z,94.00
2022-10-22T21:05:10.715Z,94.32
2022-10-22T21:07:37.107Z,94.01
2022-10-22T21:10:04.381Z,94.22
2022-10-22T21:12:30.730Z,94.53
2022-10-22T21:14:57.144Z,94.38
2022-10-22T21:17:23.478Z,93.81
2022-10-22T21:19:49.846Z,94.49
2022-10-22T21:22:16.301Z,94.44
2022-10-22T21:24:42.653Z,94.46
2022-10-22T21:27:09.076Z,94.27
2022-10-22T21:29:35.618Z,94.48
2022-10-22T21:32:02.060Z,94.68
2022-10-22T21:34:28.505Z,94.47
2022-10-22T21:36:55.085Z,94.66
2022-10-22T21:39:21.577Z,94.20
2022-10-22T21:41:47.975Z,94.41
2022-10-22T21:44:14.359Z,94.88
2022-10-22T21:46:40.935Z,95.35
2022-10-22T21:49:07.321Z,95.51
2022-10-22T21:51:35.795Z,95.85
2022-10-22T21:54:02.225Z,95.22
2022-10-22T21:56:32.736Z,95.88
2022-10-22T21:59:00.081Z,95.69
2022-10-22T22:01:26.827Z,95.97
2022-10-22T22:03:53.429Z,96.41
2022-10-22T22:06:22.822Z,96.71
2022-10-22T22:08:52.025Z,96.76
2022-10-22T22:11:24.580Z,96.95
2022-10-22T22:13:52.417Z,97.13
2022-10-22T22:16:28.665Z,97.72
2022-10-22T22:18:57.734Z,97.30
2022-10-22T22:21:24.738Z,97.13
2022-10-22T22:23:51.253Z,96.99
2022-10-22T22:26:25.404Z,97.17
2022-10-22T22:28:55.750Z,96.57
2022-10-22T22:31:25.928Z,96.84
2022-10-22T22:33:58.286Z,97.05
2022-10-22T22:36:24.724Z,96.36
2022-10-22T22:38:55.160Z,97.07
2022-10-22T22:41:21.947Z,96.80
2022-10-22T22:43:48.366Z,96.96
2022-10-22T22:46:14.826Z,96.77
2022-10-22T22:48:41.221Z,97.03
2022-10-22T22:51:07.879Z,97.09
2022-10-22T22:53:35.060Z,97.03
2022-10-22T22:56:06.887Z,97.59
2022-10-22T22:58:33.808Z,97.16
2022-10-22T23:01:24.836Z,98.88
2022-10-22T23:03:58.310Z,97.75
2022-10-22T23:06:26.630Z,97.46
2022-10-22T23:08:54.169Z,97.58
2022-10-22T23:11:21.836Z,97.24
2022-10-22T23:13:55.772Z,97.97
2022-10-22T23:16:24.798Z,97.61
2022-10-22T23:18:53.789Z,97.69
2022-10-22T23:21:24.224Z,97.56
2022-10-22T23:23:54.575Z,97.45
2022-10-22T23:26:23.590Z,97.39
2022-10-22T23:28:50.593Z,97.21
2022-10-22T23:31:19.999Z,97.60
2022-10-22T23:33:46.680Z,97.56
2022-10-22T23:36:14.099Z,98.07
2022-10-22T23:38:41.332Z,97.80
2022-10-22T23:41:08.358Z,97.77
2022-10-22T23:43:36.192Z,97.89
2022-10-22T23:46:06.695Z,98.22
2022-10-22T23:48:33.636Z,98.03
2022-10-22T23:51:05.460Z,98.75
2022-10-22T23:53:31.853Z,98.29
2022-10-22T23:55:58.528Z,98.51
2022-10-22T23:58:24.889Z,98.39
